createdAt,value
2022-11-24T00:00:30.753Z,6.87
2022-11-24T00:02:57.389Z,6.88
2022-11-24T00:05:24.111Z,6.88
2022-11-24T00:07:50.745Z,6.87
2022-11-24T00:10:17.650Z,6.88
2022-11-24T00:12:44.254Z,6.86
2022-11-24T00:15:10.989Z,6.85
2022-11-24T00:17:37.552Z,6.82
2022-11-24T00:20:04.603Z,6.83
2022-11-24T00:22:31.173Z,6.79
2022-11-24T00:24:57.736Z,6.78
2022-11-24T00:27:24.296Z,6.76
2022-11-24T00:29:50.911Z,6.73
2022-11-24T00:32:17.487Z,6.71
2022-11-24T00:34:44.133Z,6.65
2022-11-24T00:37:10.740Z,6.63
2022-11-24T00:39:37.362Z,6.58
2022-11-24T00:42:03.981Z,6.55
2022-11-24T00:44:30.801Z,6.55
2022-11-24T00:46:57.720Z,6.52
2022-11-24T00:49:24.357Z,6.49
2022-11-24T00:51:53.012Z,6.45
2022-11-24T00:54:19.674Z,6.46
2022-11-24T00:56:46.269Z,6.42
2022-11-24T00:59:12.830Z,6.39
2022-11-24T01:01:39.519Z,6.36
2022-11-24T01:04:06.130Z,6.35
2022-11-24T01:06:33.088Z,6.33
2022-11-24T01:08:59.834Z,6.31
2022-11-24T01:11:29.852Z,6.28
2022-11-24T01:13:59.342Z,6.27
2022-11-24T01:16:29.139Z,6.25
2022-11-24T01:18:56.301Z,6.22
2022-11-24T01:21:24.664Z,6.21
2022-11-24T01:23:52.737Z,6.15
2022-11-24T01:26:23.793Z,6.18
2022-11-24T01:28:57.094Z,6.13
2022-11-24T01:31:26.546Z,6.15
2022-11-24T01:33:55.499Z,6.10
2022-11-24T01:36:23.876Z,6.07
2022-11-24T01:38:52.970Z,6.08
2022-11-24T01:41:24.999Z,6.08
2022-11-24T01:43:57.696Z,6.05
2022-11-24T01:49:14.454Z,5.99
2022-11-24T01:51:47.908Z,5.98
2022-11-24T01:54:20.339Z,5.98
2022-11-24T01:56:51.345Z,5.96
2022-11-24T01:59:21.822Z,5.95
2022-11-24T02:01:51.422Z,5.94
2022-11-24T02:04:23.944Z,5.91
2022-11-24T02:06:52.772Z,5.92
2022-11-24T02:09:24.152Z,5.90
2022-11-24T02:11:53.470Z,5.90
2022-11-24T02:14:22.362Z,5.88
2022-11-24T02:16:51.215Z,5.88
2022-11-24T02:19:53.798Z,5.86
2022-11-24T02:25:49.634Z,5.81
2022-11-24T02:28:20.156Z,5.81
2022-11-24T02:30:47.017Z,5.82
2022-11-24T02:33:14.044Z,5.83
2022-11-24T02:35:41.212Z,5.80
2022-11-24T02:38:12.102Z,5.80
2022-11-24T02:40:41.594Z,5.80
2022-11-24T02:43:13.800Z,5.79
2022-11-24T02:45:40.419Z,5.77
2022-11-24T02:48:07.820Z,5.77
2022-11-24T02:50:34.489Z,5.75
2022-11-24T02:53:01.070Z,5.75
2022-11-24T02:55:27.637Z,5.75
2022-11-24T02:57:54.235Z,5.72
2022-11-24T03:00:22.214Z,5.72
2022-11-24T03:02:48.939Z,5.70
2022-11-24T03:05:15.769Z,5.69
2022-11-24T03:07:42.397Z,5.68
2022-11-24T03:10:09.441Z,5.64
2022-11-24T03:12:36.161Z,5.65
2022-11-24T03:15:03.345Z,5.65
2022-11-24T03:17:30.100Z,5.64
2022-11-24T03:20:00.219Z,5.65
2022-11-24T03:22:30.892Z,5.64
2022-11-24T03:24:57.531Z,5.63
2022-11-24T03:27:24.125Z,5.62
2022-11-24T03:29:50.772Z,5.65
2022-11-24T03:32:17.381Z,5.61
2022-11-24T03:34:43.956Z,5.66
2022-11-24T03:37:10.609Z,5.69
2022-11-24T03:39:37.207Z,5.69
2022-11-24T03:42:03.912Z,5.72
2022-11-24T03:44:30.622Z,5.71
2022-11-24T03:46:57.248Z,5.72
2022-11-24T03:49:23.834Z,5.73
2022-11-24T03:51:50.589Z,5.73
2022-11-24T03:54:17.171Z,5.73
2022-11-24T03:56:43.825Z,5.74
2022-11-24T03:59:10.537Z,5.73
2022-11-24T04:01:37.166Z,5.74
2022-11-24T04:04:03.878Z,5.76
2022-11-24T04:06:30.515Z,5.76
2022-11-24T04:08:57.098Z,5.77
2022-11-24T04:11:43.598Z,5.75
2022-11-24T04:14:13.590Z,5.76
2022-11-24T04:16:40.864Z,5.74
2022-11-24T04:19:07.597Z,5.75
2022-11-24T04:21:34.184Z,5.73
2022-11-24T04:24:00.776Z,5.71
2022-11-24T04:26:27.755Z,5.72
2022-11-24T04:28:54.361Z,5.71
2022-11-24T04:31:21.046Z,5.69
2022-11-24T04:33:47.682Z,5.66
2022-11-24T04:36:14.307Z,5.65
2022-11-24T04:39:23.942Z,5.65
2022-11-24T04:41:27.575Z,5.62
2022-11-24T04:43:54.131Z,5.61
2022-11-24T04:46:20.776Z,5.56
2022-11-24T04:48:47.450Z,5.58
2022-11-24T04:51:15.261Z,5.58
2022-11-24T04:53:41.995Z,5.57
2022-11-24T04:56:08.749Z,5.57
2022-11-24T04:58:35.851Z,5.55
2022-11-24T05:01:06.121Z,5.55
2022-11-24T05:03:32.716Z,5.52
2022-11-24T05:05:59.896Z,5.53
2022-11-24T05:08:26.513Z,5.50
2022-11-24T05:10:53.242Z,5.50
2022-11-24T05:13:19.853Z,5.49
2022-11-24T05:15:46.525Z,5.50
2022-11-24T05:18:15.819Z,5.49
2022-11-24T05:20:44.760Z,5.49
2022-11-24T05:23:11.401Z,5.48
2022-11-24T05:25:37.946Z,5.48
2022-11-24T05:28:08.822Z,5.47
2022-11-24T05:30:38.189Z,5.48
2022-11-24T05:33:07.725Z,5.46
2022-11-24T05:35:36.468Z,5.48
2022-11-24T05:38:04.434Z,5.47
2022-11-24T05:40:32.024Z,5.47
2022-11-24T05:42:59.321Z,5.47
2022-11-24T05:45:26.148Z,5.46
2022-11-24T05:47:53.285Z,5.44
2022-11-24T05:50:22.049Z,5.45
2022-11-24T05:52:49.716Z,5.43
2022-11-24T05:55:19.371Z,5.43
2022-11-24T05:57:46.210Z,5.44
2022-11-24T06:00:13.308Z,5.43
2022-11-24T06:02:40.161Z,5.43
2022-11-24T06:05:07.199Z,5.41
2022-11-24T06:07:33.800Z,5.40
2022-11-24T06:10:00.370Z,5.38
2022-11-24T06:12:26.939Z,5.38
2022-11-24T06:14:53.480Z,5.40
2022-11-24T06:17:20.031Z,5.42
2022-11-24T06:19:50.121Z,5.43
2022-11-24T06:22:17.684Z,5.45
2022-11-24T06:24:44.309Z,5.47
2022-11-24T06:27:10.852Z,5.47
2022-11-24T06:29:37.400Z,5.52
2022-11-24T06:32:04.294Z,5.53
2022-11-24T06:34:31.006Z,5.55
2022-11-24T06:36:57.933Z,5.55
2022-11-24T06:39:24.504Z,5.55
2022-11-24T06:41:51.529Z,5.54
2022-11-24T06:44:18.487Z,5.54
2022-11-24T06:46:45.344Z,5.53
2022-11-24T06:49:11.877Z,5.55
2022-11-24T06:51:38.467Z,5.55
2022-11-24T06:54:10.393Z,5.53
2022-11-24T06:56:36.984Z,5.52
2022-11-24T06:59:03.594Z,5.52
2022-11-24T07:01:30.668Z,5.52
2022-11-24T07:03:58.268Z,5.55
2022-11-24T07:06:26.780Z,5.52
2022-11-24T07:08:53.540Z,5.56
2022-11-24T07:11:23.060Z,5.62
2022-11-24T07:13:56.697Z,5.63
2022-11-24T07:16:26.786Z,5.68
2022-11-24T07:18:54.157Z,5.70
2022-11-24T07:21:22.936Z,5.68
2022-11-24T07:23:51.404Z,5.64
2022-11-24T07:26:19.050Z,5.59
2022-11-24T07:28:46.017Z,5.63
2022-11-24T07:31:15.472Z,5.66
2022-11-24T07:33:42.335Z,5.68
2022-11-24T07:36:09.499Z,5.68
2022-11-24T07:38:36.265Z,5.75
2022-11-24T07:41:05.082Z,5.76
2022-11-24T07:43:33.058Z,5.74
2022-11-24T07:45:59.878Z,5.72
2022-11-24T07:48:26.959Z,5.69
2022-11-24T07:50:56.106Z,5.69
2022-11-24T07:53:22.988Z,5.65
2022-11-24T07:55:55.937Z,5.63
2022-11-24T07:58:25.495Z,5.70
2022-11-24T08:00:54.258Z,5.68
2022-11-24T08:03:24.120Z,5.73
2022-11-24T08:08:43.927Z,5.71
2022-11-24T08:11:13.815Z,5.80
2022-11-24T08:13:41.387Z,5.90
2022-11-24T08:16:10.707Z,5.98
2022-11-24T08:18:38.111Z,6.04
2022-11-24T08:21:06.074Z,6.02
2022-11-24T08:23:33.037Z,5.94
2022-11-24T08:26:05.147Z,6.01
2022-11-24T08:28:32.981Z,6.03
2022-11-24T08:31:05.129Z,6.10
2022-11-24T08:33:32.390Z,6.18
2022-11-24T08:36:17.930Z,6.26
2022-11-24T08:38:45.324Z,6.29
2022-11-24T08:41:15.828Z,6.29
2022-11-24T08:43:42.804Z,6.31
2022-11-24T08:46:13.733Z,6.34
2022-11-24T08:48:40.609Z,6.38
2022-11-24T08:51:10.668Z,6.41
2022-11-24T08:53:37.421Z,6.39
2022-11-24T08:56:05.502Z,6.46
2022-11-24T08:58:34.250Z,6.53
2022-11-24T09:01:11.165Z,6.55
2022-11-24T09:03:38.412Z,6.49
2022-11-24T09:06:06.797Z,6.53
2022-11-24T09:08:34.191Z,6.58
2022-11-24T09:11:04.214Z,6.61
2022-11-24T09:13:30.834Z,6.57
2022-11-24T09:16:02.015Z,6.53
2022-11-24T09:18:30.413Z,6.55
2022-11-24T09:21:08.161Z,6.50
2022-11-24T09:23:34.930Z,6.55
2022-11-24T09:26:05.900Z,6.56
2022-11-24T09:28:32.528Z,6.48
2022-11-24T09:31:02.713Z,6.51
2022-11-24T09:33:30.098Z,6.48
2022-11-24T09:35:56.758Z,6.52
2022-11-24T09:38:23.385Z,6.50
2022-11-24T09:40:50.671Z,6.48
2022-11-24T09:43:36.979Z,6.48
2022-11-24T09:46:16.037Z,6.49
2022-11-24T09:48:48.527Z,6.56
2022-11-24T09:51:16.102Z,6.58
2022-11-24T09:53:48.748Z,6.55
2022-11-24T09:58:54.916Z,6.60
2022-11-24T10:01:29.102Z,6.60
2022-11-24T10:03:58.607Z,6.63
2022-11-24T10:06:31.855Z,6.67
2022-11-24T10:11:43.081Z,6.69
2022-11-24T10:22:36.124Z,7.13
2022-11-24T10:27:46.879Z,8.12
2022-11-24T10:30:18.468Z,8.22
2022-11-24T10:32:48.197Z,8.41
2022-11-24T10:35:19.073Z,8.62
2022-11-24T10:43:11.288Z,8.96
2022-11-24T10:45:39.542Z,9.08
2022-11-24T10:48:18.637Z,9.21
2022-11-24T10:50:45.267Z,9.34
2022-11-24T10:53:30.207Z,9.36
2022-11-24T10:58:37.956Z,9.46
2022-11-24T11:01:33.441Z,9.39
2022-11-24T11:04:01.616Z,9.49
2022-11-24T11:11:44.594Z,9.54
2022-11-24T11:14:13.019Z,9.51
2022-11-24T11:16:43.802Z,9.55
2022-11-24T11:19:50.676Z,9.55
2022-11-24T11:22:29.132Z,9.58
2022-11-24T11:27:47.212Z,9.58
2022-11-24T11:35:46.226Z,9.67
2022-11-24T11:38:12.854Z,9.72
2022-11-24T11:40:42.886Z,9.74
2022-11-24T11:43:27.224Z,9.82
2022-11-24T11:46:03.813Z,9.96
2022-11-24T11:48:42.701Z,10.11
2022-11-24T11:51:35.924Z,10.26
2022-11-24T11:56:45.339Z,10.33
2022-11-24T11:59:37.809Z,10.33
2022-11-24T12:05:26.554Z,10.64
2022-11-24T12:13:45.070Z,10.70
2022-11-24T12:16:25.144Z,10.74
2022-11-24T12:19:15.772Z,10.71
2022-11-24T12:33:13.163Z,10.53
2022-11-24T12:43:39.699Z,10.83
2022-11-24T12:46:35.214Z,10.63
2022-11-24T12:51:56.133Z,10.67
2022-11-24T12:54:24.887Z,10.69
2022-11-24T12:57:07.542Z,10.70
2022-11-24T13:05:42.527Z,10.97
2022-11-24T13:08:09.464Z,11.05
2022-11-24T13:10:56.185Z,11.03
2022-11-24T13:13:28.245Z,11.04
2022-11-24T13:27:15.487Z,11.02
2022-11-24T13:29:44.205Z,10.97
2022-11-24T13:58:53.896Z,10.77
2022-11-24T14:01:24.264Z,10.80
2022-11-24T14:14:52.769Z,10.86
2022-11-24T14:17:25.120Z,10.84
2022-11-24T14:19:53.634Z,10.92
2022-11-24T14:22:23.086Z,10.95
2022-11-24T14:24:57.321Z,10.95
2022-11-24T14:27:29.879Z,10.97
2022-11-24T14:30:00.537Z,10.96
2022-11-24T14:32:27.552Z,10.95
2022-11-24T14:34:54.626Z,10.91
2022-11-24T14:37:21.465Z,10.93
2022-11-24T14:39:48.115Z,10.87
2022-11-24T14:45:03.789Z,11.20
2022-11-24T14:50:23.428Z,10.83
2022-11-24T14:52:54.455Z,10.77
2022-11-24T14:55:39.156Z,10.72
2022-11-24T14:58:27.752Z,10.73
2022-11-24T15:01:32.684Z,10.71
2022-11-24T15:07:26.068Z,10.67
2022-11-24T15:09:58.114Z,10.74
2022-11-24T15:12:43.279Z,10.71
2022-11-24T15:15:20.557Z,10.72
2022-11-24T15:17:49.816Z,10.72
2022-11-24T15:20:37.332Z,10.67
2022-11-24T15:25:56.228Z,10.71
2022-11-24T15:28:27.081Z,10.72
2022-11-24T15:30:54.855Z,10.70
2022-11-24T15:33:23.214Z,10.73
2022-11-24T15:35:50.457Z,10.64
2022-11-24T15:38:17.468Z,10.63
2022-11-24T15:40:46.909Z,10.62
2022-11-24T15:45:53.141Z,10.53
2022-11-24T15:48:19.712Z,10.42
2022-11-24T15:50:47.401Z,10.43
2022-11-24T15:53:20.182Z,10.29
2022-11-24T15:55:47.609Z,10.23
2022-11-24T15:58:15.215Z,10.16
2022-11-24T16:00:43.373Z,10.09
2022-11-24T16:03:44.314Z,10.04
2022-11-24T16:05:57.316Z,9.94
2022-11-24T16:08:24.012Z,9.87
2022-11-24T16:10:51.336Z,9.82
2022-11-24T16:13:17.970Z,9.80
2022-11-24T16:15:45.994Z,9.77
2022-11-24T16:18:13.991Z,9.72
2022-11-24T16:20:40.747Z,9.67
2022-11-24T16:23:07.397Z,9.62
2022-11-24T16:25:34.002Z,9.55
2022-11-24T16:28:00.581Z,9.46
2022-11-24T16:30:27.148Z,9.37
2022-11-24T16:32:53.712Z,9.30
2022-11-24T16:35:20.353Z,9.21
2022-11-24T16:37:46.940Z,9.14
2022-11-24T16:40:14.525Z,9.08
2022-11-24T16:42:41.138Z,8.96
2022-11-24T16:45:11.002Z,8.93
2022-11-24T16:47:40.139Z,8.88
2022-11-24T16:50:08.215Z,8.85
2022-11-24T16:52:34.813Z,8.79
2022-11-24T16:55:01.867Z,8.74
2022-11-24T16:57:28.491Z,8.71
2022-11-24T16:59:55.023Z,8.67
2022-11-24T17:02:21.691Z,8.68
2022-11-24T17:04:52.179Z,8.62
2022-11-24T17:07:20.357Z,8.62
2022-11-24T17:09:47.247Z,8.61
2022-11-24T17:12:13.808Z,8.59
2022-11-24T17:14:40.325Z,8.56
2022-11-24T17:17:06.874Z,8.56
2022-11-24T17:19:33.439Z,8.52
2022-11-24T17:22:00.056Z,8.48
2022-11-24T17:24:26.638Z,8.47
2022-11-24T17:26:53.345Z,8.45
2022-11-24T17:29:20.008Z,8.42
2022-11-24T17:31:46.843Z,8.40
2022-11-24T17:34:13.733Z,8.39
2022-11-24T17:36:41.557Z,8.38
2022-11-24T17:39:09.243Z,8.38
2022-11-24T17:41:35.877Z,8.35
2022-11-24T17:44:02.810Z,8.33
2022-11-24T17:46:30.666Z,8.33
2022-11-24T17:48:57.941Z,8.32
2022-11-24T17:51:26.231Z,8.28
2022-11-24T17:53:54.582Z,8.28
2022-11-24T17:56:25.055Z,8.29
2022-11-24T17:58:54.679Z,8.27
2022-11-24T18:01:22.511Z,8.25
2022-11-24T18:03:53.488Z,8.26
2022-11-24T18:06:24.136Z,8.24
2022-11-24T18:08:50.856Z,8.10
2022-11-24T18:11:24.661Z,8.19
2022-11-24T18:14:00.770Z,8.16
2022-11-24T18:16:30.377Z,8.19
2022-11-24T18:19:09.829Z,8.13
2022-11-24T18:21:39.081Z,8.12
2022-11-24T18:24:06.656Z,8.12
2022-11-24T18:26:33.324Z,8.07
2022-11-24T18:28:59.930Z,8.09
2022-11-24T18:31:26.829Z,8.09
2022-11-24T18:33:53.705Z,8.11
2022-11-24T18:36:28.392Z,8.13
2022-11-24T18:38:56.749Z,8.11
2022-11-24T18:41:23.334Z,8.09
2022-11-24T18:43:49.897Z,8.05
2022-11-24T18:46:19.260Z,8.08
2022-11-24T18:48:45.977Z,8.08
2022-11-24T18:51:16.326Z,8.01
2022-11-24T18:53:44.371Z,8.01
2022-11-24T18:56:15.346Z,8.05
2022-11-24T18:58:42.564Z,8.02
2022-11-24T19:01:18.577Z,7.95
2022-11-24T19:03:49.043Z,8.01
2022-11-24T19:08:55.197Z,7.93
2022-11-24T19:11:24.836Z,7.89
2022-11-24T19:13:51.921Z,7.88
2022-11-24T19:16:20.402Z,7.88
2022-11-24T19:18:53.641Z,7.82
2022-11-24T19:21:21.733Z,7.79
2022-11-24T19:23:48.586Z,7.77
2022-11-24T19:26:15.283Z,7.75
2022-11-24T19:28:41.907Z,7.74
2022-11-24T19:31:11.352Z,7.74
2022-11-24T19:33:38.143Z,7.70
2022-11-24T19:36:07.697Z,7.64
2022-11-24T19:38:35.213Z,7.65
2022-11-24T19:41:05.131Z,7.65
2022-11-24T19:43:32.395Z,7.61
2022-11-24T19:46:02.410Z,7.59
2022-11-24T19:48:33.241Z,7.57
2022-11-24T19:51:06.662Z,7.54
2022-11-24T19:53:34.104Z,7.54
2022-11-24T19:56:06.233Z,7.46
2022-11-24T19:58:32.901Z,7.52
2022-11-24T20:03:59.061Z,7.45
2022-11-24T20:06:28.126Z,7.43
2022-11-24T20:08:54.687Z,7.41
2022-11-24T20:11:21.957Z,7.42
2022-11-24T20:13:49.947Z,7.41
2022-11-24T20:16:18.876Z,7.41
2022-11-24T20:18:46.924Z,7.39
2022-11-24T20:21:17.894Z,7.37
2022-11-24T20:23:46.262Z,7.38
2022-11-24T20:26:16.236Z,7.34
2022-11-24T20:28:43.153Z,7.35
2022-11-24T20:31:12.385Z,7.33
2022-11-24T20:33:39.921Z,7.32
2022-11-24T20:36:10.381Z,7.30
2022-11-24T20:38:37.729Z,7.31
2022-11-24T20:41:09.406Z,7.29
2022-11-24T20:43:37.058Z,7.28
2022-11-24T20:46:07.446Z,7.24
2022-11-24T20:48:35.105Z,7.19
2022-11-24T20:51:09.148Z,7.20
2022-11-24T20:53:37.158Z,7.20
2022-11-24T20:56:06.517Z,7.23
2022-11-24T20:58:35.081Z,7.19
2022-11-24T21:01:05.329Z,7.20
2022-11-24T21:03:32.076Z,7.12
2022-11-24T21:05:58.756Z,7.16
2022-11-24T21:08:25.407Z,7.16
2022-11-24T21:10:55.789Z,7.20
2022-11-24T21:13:23.001Z,7.24
2022-11-24T21:15:50.546Z,7.26
2022-11-24T21:18:17.394Z,7.28
2022-11-24T21:20:45.877Z,7.20
2022-11-24T21:23:13.829Z,7.23
2022-11-24T21:25:40.425Z,7.33
2022-11-24T21:28:08.213Z,7.25
2022-11-24T21:30:36.261Z,7.31
2022-11-24T21:33:04.127Z,7.31
2022-11-24T21:35:34.267Z,7.28
2022-11-24T21:38:00.859Z,7.24
2022-11-24T21:40:27.648Z,7.26
2022-11-24T21:42:54.280Z,7.19
2022-11-24T21:45:20.803Z,7.23
2022-11-24T21:47:47.356Z,7.20
2022-11-24T21:50:13.890Z,7.16
2022-11-24T21:52:40.455Z,7.15
2022-11-24T21:55:07.316Z,7.13
2022-11-24T21:57:33.954Z,7.12
2022-11-24T22:00:00.519Z,7.10
2022-11-24T22:02:27.096Z,7.07
2022-11-24T22:04:53.767Z,7.09
2022-11-24T22:07:20.452Z,7.01
2022-11-24T22:09:49.118Z,7.06
2022-11-24T22:12:16.328Z,7.06
2022-11-24T22:14:43.239Z,7.10
2022-11-24T22:17:10.038Z,7.05
2022-11-24T22:19:36.589Z,7.07
2022-11-24T22:22:03.133Z,7.09
2022-11-24T22:24:29.970Z,7.08
2022-11-24T22:26:56.526Z,7.06
2022-11-24T22:29:23.067Z,7.06
2022-11-24T22:31:49.759Z,7.09
2022-11-24T22:34:16.419Z,7.03
2022-11-24T22:36:42.995Z,7.08
2022-11-24T22:39:12.123Z,7.06
2022-11-24T22:41:38.846Z,7.02
2022-11-24T22:44:05.843Z,7.07
2022-11-24T22:46:32.825Z,7.09
2022-11-24T22:49:01.049Z,7.11
2022-11-24T22:51:31.353Z,7.08
2022-11-24T22:53:59.529Z,6.98
2022-11-24T22:56:28.067Z,7.03
2022-11-24T22:58:54.829Z,7.06
2022-11-24T23:01:23.911Z,7.10
2022-11-24T23:03:53.796Z,7.10
2022-11-24T23:06:24.035Z,7.09
2022-11-24T23:08:51.912Z,7.11
2022-11-24T23:11:24.668Z,7.16
2022-11-24T23:13:55.448Z,7.12
2022-11-24T23:16:22.814Z,7.18
2022-11-24T23:18:53.702Z,7.20
2022-11-24T23:23:58.112Z,7.16
2022-11-24T23:26:27.958Z,7.22
2022-11-24T23:28:54.723Z,7.23
2022-11-24T23:31:24.563Z,7.23
2022-11-24T23:33:51.273Z,7.22
2022-11-24T23:36:19.647Z,7.26
2022-11-24T23:38:46.839Z,7.26
2022-11-24T23:41:16.023Z,7.33
2022-11-24T23:43:43.177Z,7.31
2022-11-24T23:46:12.591Z,7.31
2022-11-24T23:48:39.913Z,7.34
2022-11-24T23:51:26.362Z,7.36
2022-11-24T23:53:53.350Z,7.38
2022-11-24T23:56:24.786Z,7.41
2022-11-24T23:58:51.871Z,7.41
